Bergem, Luxembourg
Current Conditions -  °F | °C
As of 7:20 PM on Friday 28 Nov 2014 (Local Time) from ELLX Reporting Station
Clear Clear  
Wind Chill: 30°   Ceiling: Unl
Heat Index: 37°   Visibility: 3mi
Dew Point: 36°   Wind: 10mph
Humidity: 93%   Direction: 60°ENE
Pressure: 29.77"   Gusts: NA
Location:  49.53°N, 6.04°E
Report Text: ELLX 281820Z 06009KT 5000 NSC 03/02 Q1008 BECMG 4000
Loading
Personal Weather Stations






























Interactive Weather Map New forecast layout! Learn more

10-Day Weather Forecast

Advertisements
Track Severe Weather on mobile